Morgan Ray — WDF6085 — position and weather

sailwx.info

Track history (hours):
 
Tides and Currents Weather Stations Pressure Air Temp Water Temp Dewpoint Dewpoint Depression Visibility Wind Speed Wind Dir Waves Ship Positions

Morgan Ray

Owner: Daigle Towing Service LLC., Belle Chasse, LA. More information available from US FCC via Universal Licensing System and Coast Guard Vessel Documentation Center.

Last reported at 2016-Jun-28 08:30 UTC. Time now 2016-Jun-28 15:16 UTC.
Position N 30°00' W 089°58'.

Length 20 m; draft 2 m.

Type: Tug. MMSI: 367470470.

Date/timePositionNaut miles runAvg speedWind from/ knotsBaromVisibWave heightAir tempDewpointWater temp
2016-Jun-28 08:30N 30°00' W 089°58'4 3.7
2016-Jun-28 07:33N 29°58' W 090°02'0 0.2
2016-Jun-28 06:33N 29°58' W 090°02'0 0.1
2016-Jun-28 04:33N 29°57' W 090°02'0 0.0
2016-Jun-28 03:33N 29°57' W 090°02'0 0.0
2016-Jun-28 02:33N 29°57' W 090°02'0 0.0
2016-Jun-28 01:33N 29°57' W 090°02'0 0.0
2016-Jun-28 00:33N 29°57' W 090°02'0 0.0
2016-Jun-27 23:33N 29°57' W 090°02'0 0.0
2016-Jun-27 22:33N 29°57' W 090°02'0 0.0
2016-Jun-27 21:33N 29°57' W 090°02'0 0.0
2016-Jun-27 20:33N 29°57' W 090°02'0 0.0
2016-Jun-27 19:33N 29°57' W 090°02'0 0.0
2016-Jun-27 18:33N 29°57' W 090°02'0 0.0
2016-Jun-27 17:33N 29°57' W 090°02'0 0.0
2016-Jun-27 16:33N 29°57' W 090°02'0 0.0
2016-Jun-27 15:33N 29°57' W 090°02'0 0.0
2016-Jun-27 14:33N 29°57' W 090°02'0 0.0
2016-Jun-27 13:33N 29°57' W 090°02'0 0.0
2016-Jun-27 12:33N 29°57' W 090°02'0 0.0
2016-Jun-27 11:33N 29°57' W 090°02'0 0.0
2016-Jun-27 10:33N 29°57' W 090°02'0 0.0
2016-Jun-27 09:33N 29°57' W 090°02'0 0.0
2016-Jun-27 08:33N 29°57' W 090°02'0 0.0
2016-Jun-27 07:34N 29°57' W 090°02'0 0.4
2016-Jun-27 06:33N 29°57' W 090°02'0 0.0
2016-Jun-27 05:33N 29°57' W 090°02'0 0.0
2016-Jun-27 04:33N 29°57' W 090°02'0 0.0
2016-Jun-27 03:33N 29°57' W 090°02'0 0.0
2016-Jun-27 02:33N 29°57' W 090°02'0 0.0
2016-Jun-27 01:33N 29°57' W 090°02'0 0.0
2016-Jun-27 00:33N 29°57' W 090°02'0 0.0
2016-Jun-26 23:33N 29°57' W 090°02'1 0.8
2016-Jun-26 22:33N 29°58' W 090°03'5 5.3
2016-Jun-26 21:33N 29°55' W 090°08'3 0.4
2016-Jun-26 15:32N 29°57' W 090°10'5 4.8
2016-Jun-26 14:33N 29°55' W 090°05'1 0.6
2016-Jun-26 13:33N 29°54' W 090°05'0 0.0
2016-Jun-26 12:33N 29°54' W 090°05'0 0.0
2016-Jun-26 11:33N 29°54' W 090°05'0 0.0
2016-Jun-26 10:33N 29°54' W 090°05'0 0.0
2016-Jun-26 09:33N 29°54' W 090°05'0 0.0
2016-Jun-26 08:33N 29°54' W 090°05'0 0.0
2016-Jun-26 07:33N 29°54' W 090°05'0 0.0
2016-Jun-26 06:33N 29°54' W 090°05'0 0.0
2016-Jun-26 05:33N 29°54' W 090°05'0 0.0
2016-Jun-26 04:33N 29°54' W 090°05'0 0.0
2016-Jun-26 03:33N 29°54' W 090°05'0 0.0
2016-Jun-26 02:33N 29°54' W 090°05'0 0.0
2016-Jun-26 01:33N 29°54' W 090°05'0 0.0
2016-Jun-26 00:33N 29°54' W 090°05'0 0.0
2016-Jun-25 23:33N 29°54' W 090°05'0 0.0
2016-Jun-25 22:33N 29°54' W 090°05'0 0.0
2016-Jun-25 21:33N 29°54' W 090°05'0 0.0
2016-Jun-25 20:33N 29°54' W 090°05'0 0.0
2016-Jun-25 19:33N 29°54' W 090°05'0 0.0
2016-Jun-25 18:33N 29°54' W 090°05'0 0.0
2016-Jun-25 17:33N 29°54' W 090°05'0 0.0
2016-Jun-25 16:33N 29°54' W 090°05'0 0.0
2016-Jun-25 15:33N 29°54' W 090°05'0 0.0
2016-Jun-25 14:33N 29°54' W 090°05'0 0.0
2016-Jun-25 13:33N 29°54' W 090°05'0 0.0
2016-Jun-25 12:33N 29°54' W 090°05'0 0.0
2016-Jun-25 11:33N 29°54' W 090°05'0 0.0
2016-Jun-25 10:33N 29°54' W 090°05'0 0.0
2016-Jun-25 09:33N 29°54' W 090°05'0 0.0
2016-Jun-25 08:33N 29°54' W 090°05'0 0.0
2016-Jun-25 07:33N 29°54' W 090°05'0 0.0
2016-Jun-25 06:33N 29°54' W 090°05'0 0.0
2016-Jun-25 05:33N 29°54' W 090°05'0 0.0
2016-Jun-25 04:33N 29°54' W 090°05'0 0.0
2016-Jun-25 03:33N 29°54' W 090°05'0 0.0
2016-Jun-25 02:33N 29°54' W 090°05'0 0.0
2016-Jun-25 01:33N 29°54' W 090°05'0 0.0
2016-Jun-25 00:33N 29°54' W 090°05'0 0.0
2016-Jun-24 23:33N 29°54' W 090°05'0 0.0
2016-Jun-24 22:33N 29°54' W 090°05'0 0.0
2016-Jun-24 21:33N 29°54' W 090°05'0 0.0
2016-Jun-24 20:33N 29°54' W 090°05'0 0.0
2016-Jun-24 19:33N 29°54' W 090°05'0 0.0
2016-Jun-24 18:33N 29°54' W 090°05'0 0.0
2016-Jun-24 17:33N 29°54' W 090°05'0 0.0
2016-Jun-24 16:33N 29°54' W 090°05'0 0.0
2016-Jun-24 15:33N 29°54' W 090°05'0 0.0
2016-Jun-24 14:33N 29°54' W 090°05'0 0.0
2016-Jun-24 13:33N 29°54' W 090°05'0 0.0
2016-Jun-24 12:33N 29°54' W 090°05'0 0.0
2016-Jun-24 11:33N 29°54' W 090°05'0 0.0
2016-Jun-24 10:33N 29°54' W 090°05'0 0.0
2016-Jun-24 09:33N 29°54' W 090°05'0 0.0
2016-Jun-24 08:33N 29°54' W 090°05'0 0.0
2016-Jun-24 07:34N 29°54' W 090°05'0 0.0
2016-Jun-24 04:33N 29°54' W 090°05'0 0.0
2016-Jun-24 03:33N 29°54' W 090°05'0 0.0
2016-Jun-24 02:33N 29°54' W 090°05'0 0.0
2016-Jun-24 01:33N 29°54' W 090°05'0 0.0
2016-Jun-24 00:34N 29°54' W 090°05'4 4.3
2016-Jun-23 23:33N 29°50' W 090°03'0 0.2
2016-Jun-23 22:33N 29°50' W 090°03'1 0.9
2016-Jun-23 21:32N 29°51' W 090°04'4 3.1
2016-Jun-23 20:08N 29°55' W 090°05'3 5.2
2016-Jun-23 19:31N 29°56' W 090°08'42 1.5
2016-Jun-22 14:33N 29°32' W 090°48'5 5.0
2016-Jun-22 13:33N 29°34' W 090°43'3 2.6
2016-Jun-22 12:33N 29°37' W 090°42'4 4.2
2016-Jun-22 11:33N 29°35' W 090°38'6 5.6
2016-Jun-22 10:33N 29°34' W 090°32'27 4.4
2016-Jun-22 04:28N 29°46' W 090°04'4 4.4
2016-Jun-22 03:33N 29°50' W 090°03'32 1.0
2016-Jun-20 19:33N 29°34' W 090°35'5 5.5
2016-Jun-20 18:33N 29°36' W 090°41'3 3.2
2016-Jun-20 17:33N 29°34' W 090°43'3 2.8
2016-Jun-20 16:33N 29°32' W 090°46'64 4.9
2016-Jun-20 03:31N 29°51' W 091°56'6 6.5
2016-Jun-20 02:31N 29°49' W 092°03'6 6.1
2016-Jun-20 01:33N 29°47' W 092°10'6 5.6
2016-Jun-20 00:33N 29°49' W 092°16'36 5.6
2016-Jun-19 18:11N 29°56' W 092°57'5 5.8
2016-Jun-19 17:24N 29°56' W 093°02'5 5.3
2016-Jun-19 16:32N 29°56' W 093°07'5 5.3
2016-Jun-19 15:33N 29°59' W 093°12'5 5.3
2016-Jun-19 14:33N 30°03' W 093°16'2 2.5
2016-Jun-19 13:33N 30°05' W 093°18'1 1.0
2016-Jun-19 12:33N 30°06' W 093°18'0 0.0
2016-Jun-19 11:33N 30°06' W 093°18'0 0.5
2016-Jun-19 10:34N 30°07' W 093°18'0 0.0
2016-Jun-19 09:33N 30°07' W 093°18'0 0.0
2016-Jun-19 08:33N 30°07' W 093°18'0 0.0
2016-Jun-19 07:32N 30°07' W 093°18'0 0.0
2016-Jun-19 06:33N 30°07' W 093°18'0 0.0
2016-Jun-19 05:33N 30°07' W 093°18'0 0.0
2016-Jun-19 04:33N 30°07' W 093°18'0 0.0
2016-Jun-19 03:33N 30°07' W 093°18'1 0.7
2016-Jun-19 02:08N 30°06' W 093°17'0 0.0
2016-Jun-19 01:33N 30°06' W 093°17'0 0.0
2016-Jun-19 00:33N 30°06' W 093°17'0 0.0
2016-Jun-18 23:33N 30°06' W 093°17'1 0.9
2016-Jun-18 22:34N 30°07' W 093°18'0 0.0
2016-Jun-18 21:33N 30°06' W 093°18'1 1.0
2016-Jun-18 20:33N 30°06' W 093°17'0 0.0
2016-Jun-18 19:33N 30°06' W 093°17'0 0.0
2016-Jun-18 18:33N 30°06' W 093°17'0 0.0
2016-Jun-18 17:34N 30°06' W 093°17'0 0.0
2016-Jun-18 16:33N 30°06' W 093°17'0 0.0
2016-Jun-18 15:33N 30°06' W 093°17'0 0.0
2016-Jun-18 14:33N 30°06' W 093°17'1 0.9
2016-Jun-18 13:33N 30°07' W 093°18'0 0.0
2016-Jun-18 12:34N 30°07' W 093°18'0 0.0
2016-Jun-18 11:34N 30°07' W 093°18'0 0.0
2016-Jun-18 10:33N 30°07' W 093°18'0 0.0
2016-Jun-18 09:32N 30°07' W 093°18'0 0.0
2016-Jun-18 08:33N 30°07' W 093°18'  
Track history (hours):
 
Tides and Currents Weather Stations Pressure Air Temp Water Temp Dewpoint Dewpoint Depression Visibility Wind Speed Wind Dir Waves Ship Positions

Morgan Ray

Owner: Daigle Towing Service LLC., Belle Chasse, LA. More information available from US FCC via Universal Licensing System and Coast Guard Vessel Documentation Center.

Last reported at 2016-Jun-28 08:30 UTC. Time now 2016-Jun-28 15:16 UTC.
Position N 30°00' W 089°58'.

Length 20 m; draft 2 m.

Type: Tug. MMSI: 367470470.

Date/timePositionNaut miles runAvg speedWind from/ knotsBaromVisibWave heightAir tempDewpointWater temp
2016-Jun-28 08:30N 30°00' W 089°58'4 3.7
2016-Jun-28 07:33N 29°58' W 090°02'0 0.2
2016-Jun-28 06:33N 29°58' W 090°02'0 0.1
2016-Jun-28 04:33N 29°57' W 090°02'0 0.0
2016-Jun-28 03:33N 29°57' W 090°02'0 0.0
2016-Jun-28 02:33N 29°57' W 090°02'0 0.0
2016-Jun-28 01:33N 29°57' W 090°02'0 0.0
2016-Jun-28 00:33N 29°57' W 090°02'0 0.0
2016-Jun-27 23:33N 29°57' W 090°02'0 0.0
2016-Jun-27 22:33N 29°57' W 090°02'0 0.0
2016-Jun-27 21:33N 29°57' W 090°02'0 0.0
2016-Jun-27 20:33N 29°57' W 090°02'0 0.0
2016-Jun-27 19:33N 29°57' W 090°02'0 0.0
2016-Jun-27 18:33N 29°57' W 090°02'0 0.0
2016-Jun-27 17:33N 29°57' W 090°02'0 0.0
2016-Jun-27 16:33N 29°57' W 090°02'0 0.0
2016-Jun-27 15:33N 29°57' W 090°02'0 0.0
2016-Jun-27 14:33N 29°57' W 090°02'0 0.0
2016-Jun-27 13:33N 29°57' W 090°02'0 0.0
2016-Jun-27 12:33N 29°57' W 090°02'0 0.0
2016-Jun-27 11:33N 29°57' W 090°02'0 0.0
2016-Jun-27 10:33N 29°57' W 090°02'0 0.0
2016-Jun-27 09:33N 29°57' W 090°02'0 0.0
2016-Jun-27 08:33N 29°57' W 090°02'0 0.0
2016-Jun-27 07:34N 29°57' W 090°02'0 0.4
2016-Jun-27 06:33N 29°57' W 090°02'0 0.0
2016-Jun-27 05:33N 29°57' W 090°02'0 0.0
2016-Jun-27 04:33N 29°57' W 090°02'0 0.0
2016-Jun-27 03:33N 29°57' W 090°02'0 0.0
2016-Jun-27 02:33N 29°57' W 090°02'0 0.0
2016-Jun-27 01:33N 29°57' W 090°02'0 0.0
2016-Jun-27 00:33N 29°57' W 090°02'0 0.0
2016-Jun-26 23:33N 29°57' W 090°02'1 0.8
2016-Jun-26 22:33N 29°58' W 090°03'5 5.3
2016-Jun-26 21:33N 29°55' W 090°08'3 0.4
2016-Jun-26 15:32N 29°57' W 090°10'5 4.8
2016-Jun-26 14:33N 29°55' W 090°05'1 0.6
2016-Jun-26 13:33N 29°54' W 090°05'0 0.0
2016-Jun-26 12:33N 29°54' W 090°05'0 0.0
2016-Jun-26 11:33N 29°54' W 090°05'0 0.0
2016-Jun-26 10:33N 29°54' W 090°05'0 0.0
2016-Jun-26 09:33N 29°54' W 090°05'0 0.0
2016-Jun-26 08:33N 29°54' W 090°05'0 0.0
2016-Jun-26 07:33N 29°54' W 090°05'0 0.0
2016-Jun-26 06:33N 29°54' W 090°05'0 0.0
2016-Jun-26 05:33N 29°54' W 090°05'0 0.0
2016-Jun-26 04:33N 29°54' W 090°05'0 0.0
2016-Jun-26 03:33N 29°54' W 090°05'0 0.0
2016-Jun-26 02:33N 29°54' W 090°05'0 0.0
2016-Jun-26 01:33N 29°54' W 090°05'0 0.0
2016-Jun-26 00:33N 29°54' W 090°05'0 0.0
2016-Jun-25 23:33N 29°54' W 090°05'0 0.0
2016-Jun-25 22:33N 29°54' W 090°05'0 0.0
2016-Jun-25 21:33N 29°54' W 090°05'0 0.0
2016-Jun-25 20:33N 29°54' W 090°05'0 0.0
2016-Jun-25 19:33N 29°54' W 090°05'0 0.0
2016-Jun-25 18:33N 29°54' W 090°05'0 0.0
2016-Jun-25 17:33N 29°54' W 090°05'0 0.0
2016-Jun-25 16:33N 29°54' W 090°05'0 0.0
2016-Jun-25 15:33N 29°54' W 090°05'0 0.0
2016-Jun-25 14:33N 29°54' W 090°05'0 0.0
2016-Jun-25 13:33N 29°54' W 090°05'0 0.0
2016-Jun-25 12:33N 29°54' W 090°05'0 0.0
2016-Jun-25 11:33N 29°54' W 090°05'0 0.0
2016-Jun-25 10:33N 29°54' W 090°05'0 0.0
2016-Jun-25 09:33N 29°54' W 090°05'0 0.0
2016-Jun-25 08:33N 29°54' W 090°05'0 0.0
2016-Jun-25 07:33N 29°54' W 090°05'0 0.0
2016-Jun-25 06:33N 29°54' W 090°05'0 0.0
2016-Jun-25 05:33N 29°54' W 090°05'0 0.0
2016-Jun-25 04:33N 29°54' W 090°05'0 0.0
2016-Jun-25 03:33N 29°54' W 090°05'0 0.0
2016-Jun-25 02:33N 29°54' W 090°05'0 0.0
2016-Jun-25 01:33N 29°54' W 090°05'0 0.0
2016-Jun-25 00:33N 29°54' W 090°05'0 0.0
2016-Jun-24 23:33N 29°54' W 090°05'0 0.0
2016-Jun-24 22:33N 29°54' W 090°05'0 0.0
2016-Jun-24 21:33N 29°54' W 090°05'0 0.0
2016-Jun-24 20:33N 29°54' W 090°05'0 0.0
2016-Jun-24 19:33N 29°54' W 090°05'0 0.0
2016-Jun-24 18:33N 29°54' W 090°05'0 0.0
2016-Jun-24 17:33N 29°54' W 090°05'0 0.0
2016-Jun-24 16:33N 29°54' W 090°05'0 0.0
2016-Jun-24 15:33N 29°54' W 090°05'0 0.0
2016-Jun-24 14:33N 29°54' W 090°05'0 0.0
2016-Jun-24 13:33N 29°54' W 090°05'0 0.0
2016-Jun-24 12:33N 29°54' W 090°05'0 0.0
2016-Jun-24 11:33N 29°54' W 090°05'0 0.0
2016-Jun-24 10:33N 29°54' W 090°05'0 0.0
2016-Jun-24 09:33N 29°54' W 090°05'0 0.0
2016-Jun-24 08:33N 29°54' W 090°05'0 0.0
2016-Jun-24 07:34N 29°54' W 090°05'0 0.0
2016-Jun-24 04:33N 29°54' W 090°05'0 0.0
2016-Jun-24 03:33N 29°54' W 090°05'0 0.0
2016-Jun-24 02:33N 29°54' W 090°05'0 0.0
2016-Jun-24 01:33N 29°54' W 090°05'0 0.0
2016-Jun-24 00:34N 29°54' W 090°05'4 4.3
2016-Jun-23 23:33N 29°50' W 090°03'0 0.2
2016-Jun-23 22:33N 29°50' W 090°03'1 0.9
2016-Jun-23 21:32N 29°51' W 090°04'4 3.1
2016-Jun-23 20:08N 29°55' W 090°05'3 5.2
2016-Jun-23 19:31N 29°56' W 090°08'42 1.5
2016-Jun-22 14:33N 29°32' W 090°48'5 5.0
2016-Jun-22 13:33N 29°34' W 090°43'3 2.6
2016-Jun-22 12:33N 29°37' W 090°42'4 4.2
2016-Jun-22 11:33N 29°35' W 090°38'6 5.6
2016-Jun-22 10:33N 29°34' W 090°32'27 4.4
2016-Jun-22 04:28N 29°46' W 090°04'4 4.4
2016-Jun-22 03:33N 29°50' W 090°03'32 1.0
2016-Jun-20 19:33N 29°34' W 090°35'5 5.5
2016-Jun-20 18:33N 29°36' W 090°41'3 3.2
2016-Jun-20 17:33N 29°34' W 090°43'3 2.8
2016-Jun-20 16:33N 29°32' W 090°46'64 4.9
2016-Jun-20 03:31N 29°51' W 091°56'6 6.5
2016-Jun-20 02:31N 29°49' W 092°03'6 6.1
2016-Jun-20 01:33N 29°47' W 092°10'6 5.6
2016-Jun-20 00:33N 29°49' W 092°16'36 5.6
2016-Jun-19 18:11N 29°56' W 092°57'5 5.8
2016-Jun-19 17:24N 29°56' W 093°02'5 5.3
2016-Jun-19 16:32N 29°56' W 093°07'5 5.3
2016-Jun-19 15:33N 29°59' W 093°12'5 5.3
2016-Jun-19 14:33N 30°03' W 093°16'2 2.5
2016-Jun-19 13:33N 30°05' W 093°18'1 1.0
2016-Jun-19 12:33N 30°06' W 093°18'0 0.0
2016-Jun-19 11:33N 30°06' W 093°18'0 0.5
2016-Jun-19 10:34N 30°07' W 093°18'0 0.0
2016-Jun-19 09:33N 30°07' W 093°18'0 0.0
2016-Jun-19 08:33N 30°07' W 093°18'0 0.0
2016-Jun-19 07:32N 30°07' W 093°18'0 0.0
2016-Jun-19 06:33N 30°07' W 093°18'0 0.0
2016-Jun-19 05:33N 30°07' W 093°18'0 0.0
2016-Jun-19 04:33N 30°07' W 093°18'0 0.0
2016-Jun-19 03:33N 30°07' W 093°18'1 0.7
2016-Jun-19 02:08N 30°06' W 093°17'0 0.0
2016-Jun-19 01:33N 30°06' W 093°17'0 0.0
2016-Jun-19 00:33N 30°06' W 093°17'0 0.0
2016-Jun-18 23:33N 30°06' W 093°17'1 0.9
2016-Jun-18 22:34N 30°07' W 093°18'0 0.0
2016-Jun-18 21:33N 30°06' W 093°18'1 1.0
2016-Jun-18 20:33N 30°06' W 093°17'0 0.0
2016-Jun-18 19:33N 30°06' W 093°17'0 0.0
2016-Jun-18 18:33N 30°06' W 093°17'0 0.0
2016-Jun-18 17:34N 30°06' W 093°17'0 0.0
2016-Jun-18 16:33N 30°06' W 093°17'0 0.0
2016-Jun-18 15:33N 30°06' W 093°17'0 0.0
2016-Jun-18 14:33N 30°06' W 093°17'1 0.9
2016-Jun-18 13:33N 30°07' W 093°18'0 0.0
2016-Jun-18 12:34N 30°07' W 093°18'0 0.0
2016-Jun-18 11:34N 30°07' W 093°18'0 0.0
2016-Jun-18 10:33N 30°07' W 093°18'0 0.0
2016-Jun-18 09:32N 30°07' W 093°18'0 0.0
2016-Jun-18 08:33N 30°07' W 093°18'  

Dump ship's entire track history